sensor_id;sensor_type;location;lat;lon;timestamp;pressure;altitude;pressure_sealevel;temperature;humidity
50226;BME280;36113;50.742;6.432;2023-09-30T00:00:23;99719.69;;;11.83;88.84
50226;BME280;36113;50.742;6.432;2023-09-30T00:02:50;99751.47;;;11.99;88.60
50226;BME280;36113;50.742;6.432;2023-09-30T00:05:15;99757.50;;;12.01;88.66
50226;BME280;36113;50.742;6.432;2023-09-30T00:07:42;99765.09;;;11.99;88.74
50226;BME280;36113;50.742;6.432;2023-09-30T00:10:08;99755.84;;;12.00;88.52
50226;BME280;36113;50.742;6.432;2023-09-30T00:12:33;99749.81;;;11.93;88.66
50226;BME280;36113;50.742;6.432;2023-09-30T00:14:58;99762.44;;;12.05;89.08
50226;BME280;36113;50.742;6.432;2023-09-30T00:17:24;99769.28;;;12.07;89.02
50226;BME280;36113;50.742;6.432;2023-09-30T00:19:49;99764.84;;;12.01;89.10
50226;BME280;36113;50.742;6.432;2023-09-30T00:22:14;99737.16;;;11.87;89.03
50226;BME280;36113;50.742;6.432;2023-09-30T00:24:40;99730.59;;;11.83;89.14
50226;BME280;36113;50.742;6.432;2023-09-30T00:27:05;99759.66;;;11.99;89.25
50226;BME280;36113;50.742;6.432;2023-09-30T00:29:30;99754.19;;;11.99;89.18
50226;BME280;36113;50.742;6.432;2023-09-30T00:31:56;99746.31;;;11.98;89.76
50226;BME280;36113;50.742;6.432;2023-09-30T00:34:21;99754.72;;;11.96;89.63
50226;BME280;36113;50.742;6.432;2023-09-30T00:36:47;99749.72;;;11.88;89.81
50226;BME280;36113;50.742;6.432;2023-09-30T00:39:12;99733.28;;;11.78;89.90
50226;BME280;36113;50.742;6.432;2023-09-30T00:41:38;99729.97;;;11.76;89.98
50226;BME280;36113;50.742;6.432;2023-09-30T00:44:04;99741.56;;;11.88;90.30
50226;BME280;36113;50.742;6.432;2023-09-30T00:46:32;99736.28;;;11.81;90.60
50226;BME280;36113;50.742;6.432;2023-09-30T00:48:58;99765.09;;;11.99;90.99
50226;BME280;36113;50.742;6.432;2023-09-30T00:51:24;99757.97;;;11.93;90.81
50226;BME280;36113;50.742;6.432;2023-09-30T00:53:55;99773.38;;;12.10;90.93
50226;BME280;36113;50.742;6.432;2023-09-30T00:56:23;99764.88;;;12.06;91.06
50226;BME280;36113;50.742;6.432;2023-09-30T00:58:50;99750.69;;;12.04;91.49
50226;BME280;36113;50.742;6.432;2023-09-30T01:01:16;99733.06;;;11.85;91.26
50226;BME280;36113;50.742;6.432;2023-09-30T01:03:43;99761.00;;;11.97;91.51
50226;BME280;36113;50.742;6.432;2023-09-30T01:06:08;99749.53;;;11.95;91.32
50226;BME280;36113;50.742;6.432;2023-09-30T01:08:35;99760.78;;;12.04;91.31
50226;BME280;36113;50.742;6.432;2023-09-30T01:11:00;99754.19;;;11.99;91.46
50226;BME280;36113;50.742;6.432;2023-09-30T01:13:36;99765.41;;;12.03;91.54
50226;BME280;36113;50.742;6.432;2023-09-30T01:16:05;99759.66;;;11.99;91.28
50226;BME280;36113;50.742;6.432;2023-09-30T01:18:31;99752.00;;;11.96;90.81
50226;BME280;36113;50.742;6.432;2023-09-30T01:20:59;99759.72;;;12.05;91.04
50226;BME280;36113;50.742;6.432;2023-09-30T01:23:26;99741.56;;;11.88;90.74
50226;BME280;36113;50.742;6.432;2023-09-30T01:25:53;99769.19;;;12.02;90.95
50226;BME280;36113;50.742;6.432;2023-09-30T01:28:18;99769.47;;;12.00;90.97
50226;BME280;36113;50.742;6.432;2023-09-30T01:30:43;99772.22;;;12.00;91.04
50226;BME280;36113;50.742;6.432;2023-09-30T01:33:09;99771.13;;;12.01;90.76
50226;BME280;36113;50.742;6.432;2023-09-30T01:35:35;99771.06;;;11.96;90.59
50226;BME280;36113;50.742;6.432;2023-09-30T01:38:00;99777.91;;;11.99;91.09
50226;BME280;36113;50.742;6.432;2023-09-30T01:40:26;99779.00;;;11.98;90.74
50226;BME280;36113;50.742;6.432;2023-09-30T01:42:51;99795.06;;;11.99;90.76
50226;BME280;36113;50.742;6.432;2023-09-30T01:45:16;99749.03;;;11.76;90.67
50226;BME280;36113;50.742;6.432;2023-09-30T01:47:42;99766.41;;;11.92;90.93
50226;BME280;36113;50.742;6.432;2023-09-30T01:50:07;99751.19;;;11.74;90.35
50226;BME280;36113;50.742;6.432;2023-09-30T01:52:32;99765.38;;;11.76;90.75
50226;BME280;36113;50.742;6.432;2023-09-30T01:54:58;99752.81;;;11.75;90.79
50226;BME280;36113;50.742;6.432;2023-09-30T01:57:23;99785.75;;;11.95;90.85
50226;BME280;36113;50.742;6.432;2023-09-30T01:59:49;99773.22;;;11.94;90.91
50226;BME280;36113;50.742;6.432;2023-09-30T02:02:14;99773.75;;;11.91;91.01
50226;BME280;36113;50.742;6.432;2023-09-30T02:04:40;99750.91;;;11.75;90.95
50226;BME280;36113;50.742;6.432;2023-09-30T02:07:06;99778.03;;;11.87;90.76
50226;BME280;36113;50.742;6.432;2023-09-30T02:09:31;99767.91;;;11.83;90.97
50226;BME280;36113;50.742;6.432;2023-09-30T02:11:56;99757.09;;;11.66;90.78
50226;BME280;36113;50.742;6.432;2023-09-30T02:14:22;99749.06;;;11.54;90.70
50226;BME280;36113;50.742;6.432;2023-09-30T02:16:47;99768.81;;;11.66;90.61
50226;BME280;36113;50.742;6.432;2023-09-30T02:19:13;99743.25;;;11.45;90.99
50226;BME280;36113;50.742;6.432;2023-09-30T02:21:38;99783.13;;;11.56;90.88
50226;BME280;36113;50.742;6.432;2023-09-30T02:24:04;99748.81;;;11.33;90.60
50226;BME280;36113;50.742;6.432;2023-09-30T02:26:32;99749.66;;;11.34;90.47
50226;BME280;36113;50.742;6.432;2023-09-30T02:28:58;99770.97;;;11.42;90.52
50226;BME280;36113;50.742;6.432;2023-09-30T02:31:23;99781.03;;;11.42;90.83
50226;BME280;36113;50.742;6.432;2023-09-30T02:33:49;99784.28;;;11.38;90.65
50226;BME280;36113;50.742;6.432;2023-09-30T02:36:14;99788.63;;;11.39;91.52
50226;BME280;36113;50.742;6.432;2023-09-30T02:38:41;99797.38;;;11.42;91.70
50226;BME280;36113;50.742;6.432;2023-09-30T02:41:06;99754.38;;;11.22;91.80
50226;BME280;36113;50.742;6.432;2023-09-30T02:43:32;99762.41;;;11.33;91.43
50226;BME280;36113;50.742;6.432;2023-09-30T02:45:58;99781.94;;;11.47;91.09
50226;BME280;36113;50.742;6.432;2023-09-30T02:48:23;99802.16;;;11.51;91.30
50226;BME280;36113;50.742;6.432;2023-09-30T02:50:48;99794.97;;;11.45;91.27
50226;BME280;36113;50.742;6.432;2023-09-30T02:53:14;99789.22;;;11.42;91.05
50226;BME280;36113;50.742;6.432;2023-09-30T02:55:40;99793.50;;;11.37;90.84
50226;BME280;36113;50.742;6.432;2023-09-30T02:58:07;99784.66;;;11.25;91.10
50226;BME280;36113;50.742;6.432;2023-09-30T03:00:33;99795.34;;;11.32;91.22
50226;BME280;36113;50.742;6.432;2023-09-30T03:03:00;99791.53;;;11.33;91.15
50226;BME280;36113;50.742;6.432;2023-09-30T03:05:26;99773.19;;;11.23;90.94
50226;BME280;36113;50.742;6.432;2023-09-30T03:07:53;99794.25;;;11.33;91.02
50226;BME280;36113;50.742;6.432;2023-09-30T03:10:20;99786.63;;;11.30;91.27
50226;BME280;36113;50.742;6.432;2023-09-30T03:12:48;99803.34;;;11.38;91.55
50226;BME280;36113;50.742;6.432;2023-09-30T03:15:14;99794.59;;;11.36;91.32
50226;BME280;36113;50.742;6.432;2023-09-30T03:17:41;99799.41;;;11.29;91.31
50226;BME280;36113;50.742;6.432;2023-09-30T03:20:08;99794.25;;;11.33;91.25
50226;BME280;36113;50.742;6.432;2023-09-30T03:22:36;99795.66;;;11.35;91.46
50226;BME280;36113;50.742;6.432;2023-09-30T03:25:02;99797.75;;;11.28;91.25
50226;BME280;36113;50.742;6.432;2023-09-30T03:27:27;99808.88;;;11.27;91.17
50226;BME280;36113;50.742;6.432;2023-09-30T03:29:52;99781.53;;;11.16;91.02
50226;BME280;36113;50.742;6.432;2023-09-30T03:32:18;99792.66;;;11.15;90.78
50226;BME280;36113;50.742;6.432;2023-09-30T03:34:43;99790.06;;;11.03;90.97
50226;BME280;36113;50.742;6.432;2023-09-30T03:37:11;99791.06;;;10.97;90.82
50226;BME280;36113;50.742;6.432;2023-09-30T03:39:36;99786.59;;;10.91;90.85
50226;BME280;36113;50.742;6.432;2023-09-30T03:42:02;99767.03;;;10.72;90.67
50226;BME280;36113;50.742;6.432;2023-09-30T03:44:28;99793.22;;;10.78;90.50
50226;BME280;36113;50.742;6.432;2023-09-30T03:46:54;99757.81;;;10.56;90.26
50226;BME280;36113;50.742;6.432;2023-09-30T03:49:19;99777.56;;;10.68;90.00
50226;BME280;36113;50.742;6.432;2023-09-30T03:51:46;99785.38;;;10.65;90.18
50226;BME280;36113;50.742;6.432;2023-09-30T03:54:11;99745.13;;;10.45;89.86
50226;BME280;36113;50.742;6.432;2023-09-30T03:56:37;99783.53;;;10.65;90.78
50226;BME280;36113;50.742;6.432;2023-09-30T03:59:06;99775.19;;;10.55;91.20
50226;BME280;36113;50.742;6.432;2023-09-30T04:01:33;99790.66;;;10.71;91.72
50226;BME280;36113;50.742;6.432;2023-09-30T04:03:59;99759.56;;;10.45;91.91
50226;BME280;36113;50.742;6.432;2023-09-30T04:06:25;99754.28;;;10.39;92.12
50226;BME280;36113;50.742;6.432;2023-09-30T04:08:50;99774.69;;;10.58;92.07
50226;BME280;36113;50.742;6.432;2023-09-30T04:11:15;99755.97;;;10.45;91.39
50226;BME280;36113;50.742;6.432;2023-09-30T04:13:46;99777.97;;;10.60;91.04
50226;BME280;36113;50.742;6.432;2023-09-30T04:16:11;99751.81;;;10.54;91.40
50226;BME280;36113;50.742;6.432;2023-09-30T04:18:37;99723.72;;;10.48;91.50
50226;BME280;36113;50.742;6.432;2023-09-30T04:21:05;99754.19;;;10.67;91.15
50226;BME280;36113;50.742;6.432;2023-09-30T04:23:32;99768.09;;;10.71;91.43
50226;BME280;36113;50.742;6.432;2023-09-30T04:25:58;99748.41;;;10.81;91.12
50226;BME280;36113;50.742;6.432;2023-09-30T04:28:23;99752.25;;;10.85;90.74
50226;BME280;36113;50.742;6.432;2023-09-30T04:30:49;99759.34;;;10.86;90.89
50226;BME280;36113;50.742;6.432;2023-09-30T04:33:15;99758.19;;;10.82;90.81
50226;BME280;36113;50.742;6.432;2023-09-30T04:35:42;99728.81;;;10.62;91.23
50226;BME280;36113;50.742;6.432;2023-09-30T04:38:08;99760.28;;;10.74;91.07
50226;BME280;36113;50.742;6.432;2023-09-30T04:40:33;99729.47;;;10.52;91.23
50226;BME280;36113;50.742;6.432;2023-09-30T04:42:59;99762.75;;;10.59;91.23
50226;BME280;36113;50.742;6.432;2023-09-30T04:45:25;99779.66;;;10.61;91.46
50226;BME280;36113;50.742;6.432;2023-09-30T04:47:52;99799.56;;;10.67;91.04
50226;BME280;36113;50.742;6.432;2023-09-30T04:50:17;99790.28;;;10.46;90.92
50226;BME280;36113;50.742;6.432;2023-09-30T04:52:43;99769.22;;;10.24;90.76
50226;BME280;36113;50.742;6.432;2023-09-30T04:55:10;99775.72;;;10.23;90.87
50226;BME280;36113;50.742;6.432;2023-09-30T04:57:37;99787.75;;;10.27;90.70
50226;BME280;36113;50.742;6.432;2023-09-30T05:00:03;99761.78;;;10.03;90.45
50226;BME280;36113;50.742;6.432;2023-09-30T05:02:35;99795.91;;;10.27;90.71
50226;BME280;36113;50.742;6.432;2023-09-30T05:05:01;99790.13;;;10.24;90.48
50226;BME280;36113;50.742;6.432;2023-09-30T05:07:26;99799.06;;;10.36;90.51
50226;BME280;36113;50.742;6.432;2023-09-30T05:09:53;99754.38;;;10.15;90.48
50226;BME280;36113;50.742;6.432;2023-09-30T05:12:19;99790.66;;;10.38;90.92
50226;BME280;36113;50.742;6.432;2023-09-30T05:14:45;99786.63;;;10.40;91.17
50226;BME280;36113;50.742;6.432;2023-09-30T05:17:11;99781.47;;;10.39;90.85
50226;BME280;36113;50.742;6.432;2023-09-30T05:19:37;99787.72;;;10.39;90.72
50226;BME280;36113;50.742;6.432;2023-09-30T05:22:02;99786.63;;;10.40;90.87
50226;BME280;36113;50.742;6.432;2023-09-30T05:24:28;99785.31;;;10.43;90.61
50226;BME280;36113;50.742;6.432;2023-09-30T05:26:54;99798.91;;;10.43;90.31
50226;BME280;36113;50.742;6.432;2023-09-30T05:29:19;99773.47;;;10.32;90.25
50226;BME280;36113;50.742;6.432;2023-09-30T05:31:45;99789.47;;;10.45;90.14
50226;BME280;36113;50.742;6.432;2023-09-30T05:34:11;99801.50;;;10.49;90.05
50226;BME280;36113;50.742;6.432;2023-09-30T05:36:36;99807.06;;;10.43;89.94
50226;BME280;36113;50.742;6.432;2023-09-30T05:39:01;99818.66;;;10.38;90.03
50226;BME280;36113;50.742;6.432;2023-09-30T05:41:28;99822.13;;;10.33;90.10
50226;BME280;36113;50.742;6.432;2023-09-30T05:43:54;99827.69;;;10.27;90.53
50226;BME280;36113;50.742;6.432;2023-09-30T05:46:20;99792.00;;;10.06;90.56
50226;BME280;36113;50.742;6.432;2023-09-30T05:48:46;99795.72;;;10.17;90.47
50226;BME280;36113;50.742;6.432;2023-09-30T05:51:11;99790.50;;;9.99;90.52
50226;BME280;36113;50.742;6.432;2023-09-30T05:53:40;99781.66;;;9.91;90.74
50226;BME280;36113;50.742;6.432;2023-09-30T05:56:06;99797.78;;;10.10;90.45
50226;BME280;36113;50.742;6.432;2023-09-30T05:58:32;99801.16;;;10.17;90.58
50226;BME280;36113;50.742;6.432;2023-09-30T06:00:57;99818.38;;;10.23;90.13
50226;BME280;36113;50.742;6.432;2023-09-30T06:03:23;99834.13;;;10.21;90.25
50226;BME280;36113;50.742;6.432;2023-09-30T06:05:48;99832.00;;;10.11;90.45
50226;BME280;36113;50.742;6.432;2023-09-30T06:08:14;99821.53;;;10.03;90.69
50226;BME280;36113;50.742;6.432;2023-09-30T06:10:40;99807.28;;;9.95;90.85
50226;BME280;36113;50.742;6.432;2023-09-30T06:13:08;99810.13;;;10.01;90.05
50226;BME280;36113;50.742;6.432;2023-09-30T06:15:34;99794.28;;;9.98;89.88
50226;BME280;36113;50.742;6.432;2023-09-30T06:18:01;99828.53;;;10.27;90.00
50226;BME280;36113;50.742;6.432;2023-09-30T06:20:29;99816.56;;;10.28;90.05
50226;BME280;36113;50.742;6.432;2023-09-30T06:22:56;99816.09;;;10.31;89.45
50226;BME280;36113;50.742;6.432;2023-09-30T06:25:21;99802.41;;;10.26;89.08
50226;BME280;36113;50.742;6.432;2023-09-30T06:27:49;99822.50;;;10.54;88.92
50226;BME280;36113;50.742;6.432;2023-09-30T06:30:16;99819.34;;;10.62;88.40
50226;BME280;36113;50.742;6.432;2023-09-30T06:32:42;99816.16;;;10.65;88.77
50226;BME280;36113;50.742;6.432;2023-09-30T06:35:08;99825.69;;;10.68;88.59
50226;BME280;36113;50.742;6.432;2023-09-30T06:37:36;99814.19;;;10.61;88.28
50226;BME280;36113;50.742;6.432;2023-09-30T06:40:03;99845.81;;;10.84;88.24
50226;BME280;36113;50.742;6.432;2023-09-30T06:42:30;99838.56;;;10.89;87.52
50226;BME280;36113;50.742;6.432;2023-09-30T06:44:56;99852.13;;;11.06;87.46
50226;BME280;36113;50.742;6.432;2023-09-30T06:47:22;99818.25;;;10.97;87.09
50226;BME280;36113;50.742;6.432;2023-09-30T06:49:48;99811.56;;;11.05;86.92
50226;BME280;36113;50.742;6.432;2023-09-30T06:52:13;99837.75;;;11.28;86.94
50226;BME280;36113;50.742;6.432;2023-09-30T06:54:38;99825.22;;;11.27;86.57
50226;BME280;36113;50.742;6.432;2023-09-30T06:57:04;99846.53;;;11.52;86.53
50226;BME280;36113;50.742;6.432;2023-09-30T06:59:29;99849.94;;;11.64;86.29
50226;BME280;36113;50.742;6.432;2023-09-30T07:01:56;99844.94;;;11.78;86.04
50226;BME280;36113;50.742;6.432;2023-09-30T07:04:22;99807.88;;;11.77;85.20
50226;BME280;36113;50.742;6.432;2023-09-30T07:06:47;99846.41;;;12.08;85.18
50226;BME280;36113;50.742;6.432;2023-09-30T07:09:13;99838.34;;;12.18;84.94
50226;BME280;36113;50.742;6.432;2023-09-30T07:11:38;99816.53;;;12.18;84.61
50226;BME280;36113;50.742;6.432;2023-09-30T07:14:04;99835.25;;;12.36;84.66
50226;BME280;36113;50.742;6.432;2023-09-30T07:16:29;99824.13;;;12.43;83.79
50226;BME280;36113;50.742;6.432;2023-09-30T07:18:55;99848.50;;;12.55;83.57
50226;BME280;36113;50.742;6.432;2023-09-30T07:21:20;99819.44;;;12.38;83.57
50226;BME280;36113;50.742;6.432;2023-09-30T07:23:46;99857.91;;;12.69;83.95
50226;BME280;36113;50.742;6.432;2023-09-30T07:26:12;99867.47;;;12.72;83.73
50226;BME280;36113;50.742;6.432;2023-09-30T07:28:38;99840.97;;;12.67;83.44
50226;BME280;36113;50.742;6.432;2023-09-30T07:31:03;99879.22;;;13.04;83.07
50226;BME280;36113;50.742;6.432;2023-09-30T07:33:29;99883.19;;;13.24;82.58
50226;BME280;36113;50.742;6.432;2023-09-30T07:35:55;99883.34;;;13.44;81.59
50226;BME280;36113;50.742;6.432;2023-09-30T07:38:21;99893.00;;;13.62;80.69
50226;BME280;36113;50.742;6.432;2023-09-30T07:40:46;99886.50;;;13.74;80.15
50226;BME280;36113;50.742;6.432;2023-09-30T07:43:11;99878.22;;;13.58;80.19
50226;BME280;36113;50.742;6.432;2023-09-30T07:45:38;99860.94;;;13.48;79.69
50226;BME280;36113;50.742;6.432;2023-09-30T07:48:04;99897.09;;;13.60;80.37
50226;BME280;36113;50.742;6.432;2023-09-30T07:50:30;99904.25;;;13.71;80.16
50226;BME280;36113;50.742;6.432;2023-09-30T07:52:55;99904.56;;;13.85;80.34
50226;BME280;36113;50.742;6.432;2023-09-30T07:55:20;99904.66;;;14.00;80.26
50226;BME280;36113;50.742;6.432;2023-09-30T07:57:46;99863.66;;;14.05;79.62
50226;BME280;36113;50.742;6.432;2023-09-30T08:00:12;99891.38;;;14.35;79.38
50226;BME280;36113;50.742;6.432;2023-09-30T08:02:41;99868.13;;;14.47;77.10
50226;BME280;36113;50.742;6.432;2023-09-30T08:05:07;99887.38;;;14.83;76.19
50226;BME280;36113;50.742;6.432;2023-09-30T08:07:33;99902.16;;;15.08;74.86
50226;BME280;36113;50.742;6.432;2023-09-30T08:09:59;99899.13;;;15.20;73.82
50226;BME280;36113;50.742;6.432;2023-09-30T08:12:24;99885.13;;;15.16;72.77
50226;BME280;36113;50.742;6.432;2023-09-30T08:14:50;99887.88;;;15.26;71.96
50226;BME280;36113;50.742;6.432;2023-09-30T08:17:16;99881.84;;;15.29;71.64
50226;BME280;36113;50.742;6.432;2023-09-30T08:19:43;99919.63;;;15.53;70.07
50226;BME280;36113;50.742;6.432;2023-09-30T08:22:08;99908.09;;;15.61;69.98
50226;BME280;36113;50.742;6.432;2023-09-30T08:24:34;99890.28;;;15.59;69.45
50226;BME280;36113;50.742;6.432;2023-09-30T08:27:01;99898.72;;;15.67;68.57
50226;BME280;36113;50.742;6.432;2023-09-30T08:29:26;99912.97;;;15.85;67.68
50226;BME280;36113;50.742;6.432;2023-09-30T08:31:51;99917.34;;;15.91;67.45
50226;BME280;36113;50.742;6.432;2023-09-30T08:34:16;99920.91;;;15.91;66.59
50226;BME280;36113;50.742;6.432;2023-09-30T08:36:43;99892.41;;;15.82;66.41
50226;BME280;36113;50.742;6.432;2023-09-30T08:39:08;99899.22;;;15.95;66.51
50226;BME280;36113;50.742;6.432;2023-09-30T08:41:37;99918.91;;;16.12;65.80
50226;BME280;36113;50.742;6.432;2023-09-30T08:44:04;99911.59;;;15.92;63.66
50226;BME280;36113;50.742;6.432;2023-09-30T08:46:33;99923.63;;;16.02;65.32
50226;BME280;36113;50.742;6.432;2023-09-30T08:49:04;99903.59;;;16.01;65.53
50226;BME280;36113;50.742;6.432;2023-09-30T08:51:30;99927.31;;;16.31;65.96
50226;BME280;36113;50.742;6.432;2023-09-30T08:53:56;99923.47;;;16.32;64.42
50226;BME280;36113;50.742;6.432;2023-09-30T08:56:28;99925.41;;;16.32;64.07
50226;BME280;36113;50.742;6.432;2023-09-30T08:58:57;99920.97;;;16.41;64.82
50226;BME280;36113;50.742;6.432;2023-09-30T09:01:24;99897.31;;;16.50;64.92
50226;BME280;36113;50.742;6.432;2023-09-30T09:03:49;99916.16;;;16.62;64.39
50226;BME280;36113;50.742;6.432;2023-09-30T09:06:18;99859.78;;;16.41;63.58
50226;BME280;36113;50.742;6.432;2023-09-30T09:08:44;99905.06;;;16.77;63.14
50226;BME280;36113;50.742;6.432;2023-09-30T09:11:09;99910.03;;;16.75;61.96
50226;BME280;36113;50.742;6.432;2023-09-30T09:13:54;99855.88;;;16.47;61.85
50226;BME280;36113;50.742;6.432;2023-09-30T09:16:23;99915.22;;;16.87;61.35
50226;BME280;36113;50.742;6.432;2023-09-30T09:18:49;99909.19;;;16.85;60.26
50226;BME280;36113;50.742;6.432;2023-09-30T09:21:19;99906.13;;;16.87;59.93
50226;BME280;36113;50.742;6.432;2023-09-30T09:23:51;99876.16;;;16.56;60.47
50226;BME280;36113;50.742;6.432;2023-09-30T09:26:25;99909.41;;;16.49;60.04
50226;BME280;36113;50.742;6.432;2023-09-30T09:28:59;99821.13;;;15.82;60.84
50226;BME280;36113;50.742;6.432;2023-09-30T09:31:35;99878.53;;;16.23;61.98
50226;BME280;36113;50.742;6.432;2023-09-30T09:34:03;99909.41;;;16.44;61.62
50226;BME280;36113;50.742;6.432;2023-09-30T09:36:39;99890.63;;;16.17;61.19
50226;BME280;36113;50.742;6.432;2023-09-30T09:39:05;99900.81;;;16.11;61.12
50226;BME280;36113;50.742;6.432;2023-09-30T09:41:31;99905.75;;;16.09;61.29
50226;BME280;36113;50.742;6.432;2023-09-30T09:43:58;99863.41;;;15.71;60.19
50226;BME280;36113;50.742;6.432;2023-09-30T09:46:24;99888.59;;;15.63;60.56
50226;BME280;36113;50.742;6.432;2023-09-30T09:48:52;99909.16;;;15.76;60.74
50226;BME280;36113;50.742;6.432;2023-09-30T09:51:20;99927.78;;;15.84;61.18
50226;BME280;36113;50.742;6.432;2023-09-30T09:53:46;99898.75;;;15.78;62.28
50226;BME280;36113;50.742;6.432;2023-09-30T09:56:14;99922.81;;;16.01;63.03
50226;BME280;36113;50.742;6.432;2023-09-30T09:58:40;99914.28;;;16.03;63.17
50226;BME280;36113;50.742;6.432;2023-09-30T10:01:09;99915.66;;;16.00;62.99
50226;BME280;36113;50.742;6.432;2023-09-30T10:03:36;99880.13;;;15.75;64.34
50226;BME280;36113;50.742;6.432;2023-09-30T10:06:03;99890.78;;;15.86;62.56
50226;BME280;36113;50.742;6.432;2023-09-30T10:08:39;99917.53;;;16.15;62.54
50226;BME280;36113;50.742;6.432;2023-09-30T10:11:06;99922.44;;;16.23;61.79
50226;BME280;36113;50.742;6.432;2023-09-30T10:13:51;99896.44;;;16.10;61.52
50226;BME280;36113;50.742;6.432;2023-09-30T10:19:11;99911.06;;;16.90;61.51
50226;BME280;36113;50.742;6.432;2023-09-30T10:21:37;99896.91;;;17.07;60.48
50226;BME280;36113;50.742;6.432;2023-09-30T10:29:56;99920.41;;;17.23;56.40
50226;BME280;36113;50.742;6.432;2023-09-30T10:32:22;99931.66;;;17.56;55.77
50226;BME280;36113;50.742;6.432;2023-09-30T10:34:49;99919.03;;;17.79;55.41
50226;BME280;36113;50.742;6.432;2023-09-30T10:37:20;99929.88;;;18.18;55.56
50226;BME280;36113;50.742;6.432;2023-09-30T10:39:56;99900.50;;;17.90;54.08
50226;BME280;36113;50.742;6.432;2023-09-30T10:45:45;99930.09;;;18.22;54.31
50226;BME280;36113;50.742;6.432;2023-09-30T10:51:12;99918.97;;;18.08;55.67
50226;BME280;36113;50.742;6.432;2023-09-30T10:53:43;99938.47;;;18.12;55.23
50226;BME280;36113;50.742;6.432;2023-09-30T10:56:09;99881.53;;;17.88;54.78
50226;BME280;36113;50.742;6.432;2023-09-30T11:01:09;99928.75;;;17.95;54.47
50226;BME280;36113;50.742;6.432;2023-09-30T11:03:35;99926.56;;;17.68;54.77
50226;BME280;36113;50.742;6.432;2023-09-30T11:06:01;99923.44;;;17.22;54.62
50226;BME280;36113;50.742;6.432;2023-09-30T11:08:28;99923.03;;;17.33;55.98
50226;BME280;36113;50.742;6.432;2023-09-30T11:10:55;99893.16;;;17.27;55.82
50226;BME280;36113;50.742;6.432;2023-09-30T11:13:21;99911.41;;;17.71;54.62
50226;BME280;36113;50.742;6.432;2023-09-30T11:15:47;99880.22;;;17.81;54.32
50226;BME280;36113;50.742;6.432;2023-09-30T11:18:18;99887.13;;;18.02;53.49
50226;BME280;36113;50.742;6.432;2023-09-30T11:20:44;99900.38;;;18.00;54.07
50226;BME280;36113;50.742;6.432;2023-09-30T11:23:11;99900.56;;;17.79;54.01
50226;BME280;36113;50.742;6.432;2023-09-30T11:25:37;99891.47;;;17.60;54.51
50226;BME280;36113;50.742;6.432;2023-09-30T11:28:13;99882.97;;;17.56;54.25
50226;BME280;36113;50.742;6.432;2023-09-30T11:30:56;99886.53;;;17.57;54.76
50226;BME280;36113;50.742;6.432;2023-09-30T11:33:21;99867.22;;;17.62;54.61
50226;BME280;36113;50.742;6.432;2023-09-30T11:35:57;99896.75;;;18.05;52.49
50226;BME280;36113;50.742;6.432;2023-09-30T11:38:24;99896.22;;;18.22;52.43
50226;BME280;36113;50.742;6.432;2023-09-30T11:41:03;99896.47;;;18.44;52.66
50226;BME280;36113;50.742;6.432;2023-09-30T11:43:34;99877.53;;;18.43;52.76
50226;BME280;36113;50.742;6.432;2023-09-30T11:46:07;99869.47;;;18.46;51.48
50226;BME280;36113;50.742;6.432;2023-09-30T11:48:34;99890.00;;;18.54;51.40
50226;BME280;36113;50.742;6.432;2023-09-30T11:51:00;99895.88;;;18.66;51.58
50226;BME280;36113;50.742;6.432;2023-09-30T11:53:28;99900.44;;;18.57;51.10
50226;BME280;36113;50.742;6.432;2023-09-30T11:55:55;99893.88;;;18.34;51.46
50226;BME280;36113;50.742;6.432;2023-09-30T11:58:21;99872.16;;;18.13;51.59
50226;BME280;36113;50.742;6.432;2023-09-30T12:00:47;99873.16;;;17.98;52.11
50226;BME280;36113;50.742;6.432;2023-09-30T12:03:16;99880.97;;;17.91;53.02
50226;BME280;36113;50.742;6.432;2023-09-30T12:05:41;99875.72;;;18.14;53.20
50226;BME280;36113;50.742;6.432;2023-09-30T12:08:07;99864.84;;;18.41;53.35
50226;BME280;36113;50.742;6.432;2023-09-30T12:10:32;99859.34;;;18.60;52.61
50226;BME280;36113;50.742;6.432;2023-09-30T12:12:58;99850.03;;;18.75;51.91
50226;BME280;36113;50.742;6.432;2023-09-30T12:15:23;99831.84;;;18.74;52.12
50226;BME280;36113;50.742;6.432;2023-09-30T12:17:48;99826.06;;;18.76;50.98
50226;BME280;36113;50.742;6.432;2023-09-30T12:20:14;99833.56;;;18.89;51.65
50226;BME280;36113;50.742;6.432;2023-09-30T12:22:41;99840.63;;;18.95;50.47
50226;BME280;36113;50.742;6.432;2023-09-30T12:25:07;99844.19;;;18.96;49.45
50226;BME280;36113;50.742;6.432;2023-09-30T12:27:33;99839.28;;;18.93;49.53
50226;BME280;36113;50.742;6.432;2023-09-30T12:29:59;99818.75;;;18.85;49.78
50226;BME280;36113;50.742;6.432;2023-09-30T12:32:25;99821.78;;;19.02;48.32
50226;BME280;36113;50.742;6.432;2023-09-30T12:34:52;99799.09;;;19.06;48.66
50226;BME280;36113;50.742;6.432;2023-09-30T12:37:18;99839.38;;;19.34;48.25
50226;BME280;36113;50.742;6.432;2023-09-30T12:39:43;99834.66;;;19.21;48.17
50226;BME280;36113;50.742;6.432;2023-09-30T12:42:10;99840.56;;;19.28;48.68
50226;BME280;36113;50.742;6.432;2023-09-30T12:44:37;99825.28;;;19.36;49.22
50226;BME280;36113;50.742;6.432;2023-09-30T12:47:04;99841.03;;;19.49;49.36
50226;BME280;36113;50.742;6.432;2023-09-30T12:49:30;99829.19;;;19.49;48.98
50226;BME280;36113;50.742;6.432;2023-09-30T12:51:55;99809.38;;;19.33;49.56
50226;BME280;36113;50.742;6.432;2023-09-30T12:54:22;99826.72;;;19.47;49.94
50226;BME280;36113;50.742;6.432;2023-09-30T12:56:48;99837.34;;;19.54;50.54
50226;BME280;36113;50.742;6.432;2023-09-30T12:59:15;99838.78;;;19.65;49.64
50226;BME280;36113;50.742;6.432;2023-09-30T13:01:41;99790.97;;;19.42;48.19
50226;BME280;36113;50.742;6.432;2023-09-30T13:04:06;99841.53;;;19.65;47.47
50226;BME280;36113;50.742;6.432;2023-09-30T13:06:33;99840.22;;;19.62;47.77
50226;BME280;36113;50.742;6.432;2023-09-30T13:09:01;99840.84;;;19.59;48.11
50226;BME280;36113;50.742;6.432;2023-09-30T13:11:26;99750.91;;;18.89;46.74
50226;BME280;36113;50.742;6.432;2023-09-30T13:13:52;99826.19;;;19.17;48.08